sensor_id;sensor_type;location;lat;lon;timestamp;temperature;humidity
48604;DHT22;32708;51.212;6.788;2022-08-25T00:02:00;25.90;1.00
48604;DHT22;32708;51.212;6.788;2022-08-25T00:04:26;25.70;1.00
48604;DHT22;32708;51.212;6.788;2022-08-25T00:06:52;25.70;1.00
48604;DHT22;32708;51.212;6.788;2022-08-25T00:09:23;25.70;1.00
48604;DHT22;32708;51.212;6.788;2022-08-25T00:11:51;25.70;1.00
48604;DHT22;32708;51.212;6.788;2022-08-25T00:14:23;25.70;1.00
48604;DHT22;32708;51.212;6.788;2022-08-25T00:16:49;25.60;1.00
48604;DHT22;32708;51.212;6.788;2022-08-25T00:19:21;25.50;1.00
48604;DHT22;32708;51.212;6.788;2022-08-25T00:21:50;25.50;1.00
48604;DHT22;32708;51.212;6.788;2022-08-25T00:24:18;25.50;1.00
48604;DHT22;32708;51.212;6.788;2022-08-25T00:26:47;25.40;1.00
48604;DHT22;32708;51.212;6.788;2022-08-25T00:29:14;25.30;1.00
48604;DHT22;32708;51.212;6.788;2022-08-25T00:31:42;25.30;1.00
48604;DHT22;32708;51.212;6.788;2022-08-25T00:34:18;25.30;1.00
48604;DHT22;32708;51.212;6.788;2022-08-25T00:36:48;25.20;1.00
48604;DHT22;32708;51.212;6.788;2022-08-25T00:39:17;25.20;1.00
48604;DHT22;32708;51.212;6.788;2022-08-25T00:41:49;25.10;1.00
48604;DHT22;32708;51.212;6.788;2022-08-25T00:44:18;25.20;1.00
48604;DHT22;32708;51.212;6.788;2022-08-25T00:46:50;25.10;1.00
48604;DHT22;32708;51.212;6.788;2022-08-25T00:49:38;25.10;1.00
48604;DHT22;32708;51.212;6.788;2022-08-25T00:52:12;25.10;1.00
48604;DHT22;32708;51.212;6.788;2022-08-25T00:54:51;25.00;1.00
48604;DHT22;32708;51.212;6.788;2022-08-25T00:57:22;25.00;1.00
48604;DHT22;32708;51.212;6.788;2022-08-25T00:59:49;24.90;1.00
48604;DHT22;32708;51.212;6.788;2022-08-25T01:02:16;24.90;1.00
48604;DHT22;32708;51.212;6.788;2022-08-25T01:04:44;24.90;1.00
48604;DHT22;32708;51.212;6.788;2022-08-25T01:07:11;24.90;1.00
48604;DHT22;32708;51.212;6.788;2022-08-25T01:09:38;24.90;1.00
48604;DHT22;32708;51.212;6.788;2022-08-25T01:12:04;24.90;1.00
48604;DHT22;32708;51.212;6.788;2022-08-25T01:14:31;24.90;1.00
48604;DHT22;32708;51.212;6.788;2022-08-25T01:16:59;24.80;1.00
48604;DHT22;32708;51.212;6.788;2022-08-25T01:19:26;24.80;1.00
48604;DHT22;32708;51.212;6.788;2022-08-25T01:21:54;24.70;1.00
48604;DHT22;32708;51.212;6.788;2022-08-25T01:24:25;24.70;1.00
48604;DHT22;32708;51.212;6.788;2022-08-25T01:26:53;24.70;1.00
48604;DHT22;32708;51.212;6.788;2022-08-25T01:29:19;24.70;1.00
48604;DHT22;32708;51.212;6.788;2022-08-25T01:31:48;24.70;1.00
48604;DHT22;32708;51.212;6.788;2022-08-25T01:34:15;24.70;1.00
48604;DHT22;32708;51.212;6.788;2022-08-25T01:36:43;24.70;1.00
48604;DHT22;32708;51.212;6.788;2022-08-25T01:39:10;24.60;1.00
48604;DHT22;32708;51.212;6.788;2022-08-25T01:42:08;24.60;1.00
48604;DHT22;32708;51.212;6.788;2022-08-25T01:44:40;24.50;1.00
48604;DHT22;32708;51.212;6.788;2022-08-25T01:47:07;24.60;1.00
48604;DHT22;32708;51.212;6.788;2022-08-25T01:49:34;24.50;1.00
48604;DHT22;32708;51.212;6.788;2022-08-25T01:54:32;24.50;1.00
48604;DHT22;32708;51.212;6.788;2022-08-25T01:56:58;24.50;1.00
48604;DHT22;32708;51.212;6.788;2022-08-25T01:59:26;24.50;1.00
48604;DHT22;32708;51.212;6.788;2022-08-25T02:01:53;24.50;1.00
48604;DHT22;32708;51.212;6.788;2022-08-25T02:04:22;24.50;1.00
48604;DHT22;32708;51.212;6.788;2022-08-25T02:06:48;24.40;1.00
48604;DHT22;32708;51.212;6.788;2022-08-25T02:09:16;24.40;1.00
48604;DHT22;32708;51.212;6.788;2022-08-25T02:11:45;24.50;1.00
48604;DHT22;32708;51.212;6.788;2022-08-25T02:14:14;24.40;1.00
48604;DHT22;32708;51.212;6.788;2022-08-25T02:16:43;24.40;1.00
48604;DHT22;32708;51.212;6.788;2022-08-25T02:19:10;24.40;1.00
48604;DHT22;32708;51.212;6.788;2022-08-25T02:21:37;24.40;1.00
48604;DHT22;32708;51.212;6.788;2022-08-25T02:24:05;24.30;1.00
48604;DHT22;32708;51.212;6.788;2022-08-25T02:26:32;24.30;1.00
48604;DHT22;32708;51.212;6.788;2022-08-25T02:28:58;24.30;1.00
48604;DHT22;32708;51.212;6.788;2022-08-25T02:31:25;24.20;1.00
48604;DHT22;32708;51.212;6.788;2022-08-25T02:33:52;24.20;1.00
48604;DHT22;32708;51.212;6.788;2022-08-25T02:36:19;24.20;1.00
48604;DHT22;32708;51.212;6.788;2022-08-25T02:38:45;24.20;1.00
48604;DHT22;32708;51.212;6.788;2022-08-25T02:41:18;24.10;1.00
48604;DHT22;32708;51.212;6.788;2022-08-25T02:43:46;24.20;1.00
48604;DHT22;32708;51.212;6.788;2022-08-25T02:46:14;24.10;1.00
48604;DHT22;32708;51.212;6.788;2022-08-25T02:48:41;24.10;1.00
48604;DHT22;32708;51.212;6.788;2022-08-25T02:51:09;24.10;1.00
48604;DHT22;32708;51.212;6.788;2022-08-25T02:53:36;24.10;1.00
48604;DHT22;32708;51.212;6.788;2022-08-25T02:56:07;24.10;1.00
48604;DHT22;32708;51.212;6.788;2022-08-25T02:58:36;24.10;1.00
48604;DHT22;32708;51.212;6.788;2022-08-25T03:01:03;24.00;1.00
48604;DHT22;32708;51.212;6.788;2022-08-25T03:03:32;24.10;1.00
48604;DHT22;32708;51.212;6.788;2022-08-25T03:05:58;24.00;1.00
48604;DHT22;32708;51.212;6.788;2022-08-25T03:08:25;24.00;1.00
48604;DHT22;32708;51.212;6.788;2022-08-25T03:10:51;23.90;1.00
48604;DHT22;32708;51.212;6.788;2022-08-25T03:13:17;23.90;1.00
48604;DHT22;32708;51.212;6.788;2022-08-25T03:15:44;23.80;1.30
48604;DHT22;32708;51.212;6.788;2022-08-25T03:18:10;23.90;2.40
48604;DHT22;32708;51.212;6.788;2022-08-25T03:20:38;23.80;5.10
48604;DHT22;32708;51.212;6.788;2022-08-25T03:23:05;23.80;5.50
48604;DHT22;32708;51.212;6.788;2022-08-25T03:25:31;23.70;7.50
48604;DHT22;32708;51.212;6.788;2022-08-25T03:28:17;23.70;10.20
48604;DHT22;32708;51.212;6.788;2022-08-25T03:30:44;23.60;14.30
48604;DHT22;32708;51.212;6.788;2022-08-25T03:33:10;23.60;16.50
48604;DHT22;32708;51.212;6.788;2022-08-25T03:35:36;23.50;19.10
48604;DHT22;32708;51.212;6.788;2022-08-25T03:38:03;23.50;23.60
48604;DHT22;32708;51.212;6.788;2022-08-25T03:40:29;23.50;25.90
48604;DHT22;32708;51.212;6.788;2022-08-25T03:42:57;23.30;34.10
48604;DHT22;32708;51.212;6.788;2022-08-25T03:45:24;23.30;44.50
48604;DHT22;32708;51.212;6.788;2022-08-25T03:47:51;23.20;55.90
48604;DHT22;32708;51.212;6.788;2022-08-25T03:50:19;23.20;66.50
48604;DHT22;32708;51.212;6.788;2022-08-25T03:52:53;23.10;81.00
48604;DHT22;32708;51.212;6.788;2022-08-25T03:55:21;23.10;92.30
48604;DHT22;32708;51.212;6.788;2022-08-25T03:57:49;23.10;98.40
48604;DHT22;32708;51.212;6.788;2022-08-25T04:00:15;23.00;99.90
48604;DHT22;32708;51.212;6.788;2022-08-25T04:02:43;23.00;99.90
48604;DHT22;32708;51.212;6.788;2022-08-25T04:05:11;22.90;99.90
48604;DHT22;32708;51.212;6.788;2022-08-25T04:07:37;22.90;99.90
48604;DHT22;32708;51.212;6.788;2022-08-25T04:10:07;22.90;99.90
48604;DHT22;32708;51.212;6.788;2022-08-25T04:12:34;22.80;99.90
48604;DHT22;32708;51.212;6.788;2022-08-25T04:15:04;22.80;99.90
48604;DHT22;32708;51.212;6.788;2022-08-25T04:17:31;22.90;99.90
48604;DHT22;32708;51.212;6.788;2022-08-25T04:19:57;22.90;99.90
48604;DHT22;32708;51.212;6.788;2022-08-25T04:22:26;22.80;99.90
48604;DHT22;32708;51.212;6.788;2022-08-25T04:24:52;22.90;99.90
48604;DHT22;32708;51.212;6.788;2022-08-25T04:27:18;22.90;99.90
48604;DHT22;32708;51.212;6.788;2022-08-25T04:29:44;22.80;99.90
48604;DHT22;32708;51.212;6.788;2022-08-25T04:32:10;22.80;99.90
48604;DHT22;32708;51.212;6.788;2022-08-25T04:34:37;22.80;99.90
48604;DHT22;32708;51.212;6.788;2022-08-25T04:37:03;22.70;99.90
48604;DHT22;32708;51.212;6.788;2022-08-25T04:39:31;22.80;99.90
48604;DHT22;32708;51.212;6.788;2022-08-25T04:41:58;22.80;99.90
48604;DHT22;32708;51.212;6.788;2022-08-25T04:44:25;22.80;99.90
48604;DHT22;32708;51.212;6.788;2022-08-25T04:46:51;22.70;99.90
48604;DHT22;32708;51.212;6.788;2022-08-25T04:49:17;22.70;99.90
48604;DHT22;32708;51.212;6.788;2022-08-25T04:51:44;22.70;99.90
48604;DHT22;32708;51.212;6.788;2022-08-25T04:54:15;22.70;99.90
48604;DHT22;32708;51.212;6.788;2022-08-25T04:56:49;22.70;99.90
48604;DHT22;32708;51.212;6.788;2022-08-25T04:59:16;22.70;99.90
48604;DHT22;32708;51.212;6.788;2022-08-25T05:01:44;22.70;99.90
48604;DHT22;32708;51.212;6.788;2022-08-25T05:04:13;22.80;99.90
48604;DHT22;32708;51.212;6.788;2022-08-25T05:06:40;22.80;99.90
48604;DHT22;32708;51.212;6.788;2022-08-25T05:09:06;22.80;99.90
48604;DHT22;32708;51.212;6.788;2022-08-25T05:11:32;22.80;99.90
48604;DHT22;32708;51.212;6.788;2022-08-25T05:14:00;22.90;99.90
48604;DHT22;32708;51.212;6.788;2022-08-25T05:16:26;22.90;99.90
48604;DHT22;32708;51.212;6.788;2022-08-25T05:18:54;23.10;99.90
48604;DHT22;32708;51.212;6.788;2022-08-25T05:21:24;23.10;99.90
48604;DHT22;32708;51.212;6.788;2022-08-25T05:23:57;23.10;99.90
48604;DHT22;32708;51.212;6.788;2022-08-25T05:26:30;23.20;99.90
48604;DHT22;32708;51.212;6.788;2022-08-25T05:28:58;23.20;99.90
48604;DHT22;32708;51.212;6.788;2022-08-25T05:31:26;23.30;99.90
48604;DHT22;32708;51.212;6.788;2022-08-25T05:33:54;23.30;99.90
48604;DHT22;32708;51.212;6.788;2022-08-25T05:36:21;23.40;99.90
48604;DHT22;32708;51.212;6.788;2022-08-25T05:38:48;23.50;99.90
48604;DHT22;32708;51.212;6.788;2022-08-25T05:41:17;23.50;99.90
48604;DHT22;32708;51.212;6.788;2022-08-25T05:43:46;23.60;99.90
48604;DHT22;32708;51.212;6.788;2022-08-25T05:46:15;23.60;99.90
48604;DHT22;32708;51.212;6.788;2022-08-25T05:48:41;23.80;99.90
48604;DHT22;32708;51.212;6.788;2022-08-25T05:51:09;23.80;99.90
48604;DHT22;32708;51.212;6.788;2022-08-25T05:53:37;23.80;99.90
48604;DHT22;32708;51.212;6.788;2022-08-25T05:56:03;23.90;99.90
48604;DHT22;32708;51.212;6.788;2022-08-25T05:58:30;24.30;99.90
48604;DHT22;32708;51.212;6.788;2022-08-25T06:00:58;24.80;99.90
48604;DHT22;32708;51.212;6.788;2022-08-25T06:03:48;25.40;99.90
48604;DHT22;32708;51.212;6.788;2022-08-25T06:06:15;25.80;99.90
48604;DHT22;32708;51.212;6.788;2022-08-25T06:08:43;25.80;99.90
48604;DHT22;32708;51.212;6.788;2022-08-25T06:11:10;26.10;99.90
48604;DHT22;32708;51.212;6.788;2022-08-25T06:13:38;26.50;99.90
48604;DHT22;32708;51.212;6.788;2022-08-25T06:16:05;26.90;94.60
48604;DHT22;32708;51.212;6.788;2022-08-25T06:18:31;27.00;90.90
48604;DHT22;32708;51.212;6.788;2022-08-25T06:20:57;27.30;84.80
48604;DHT22;32708;51.212;6.788;2022-08-25T06:23:23;27.70;77.30
48604;DHT22;32708;51.212;6.788;2022-08-25T06:25:52;27.70;72.70
48604;DHT22;32708;51.212;6.788;2022-08-25T06:28:19;27.40;72.30
48604;DHT22;32708;51.212;6.788;2022-08-25T06:30:46;27.40;71.30
48604;DHT22;32708;51.212;6.788;2022-08-25T06:33:13;27.60;69.50
48604;DHT22;32708;51.212;6.788;2022-08-25T06:35:43;28.00;76.60
48604;DHT22;32708;51.212;6.788;2022-08-25T06:38:10;27.80;62.60
48604;DHT22;32708;51.212;6.788;2022-08-25T06:40:37;27.80;63.30
48604;DHT22;32708;51.212;6.788;2022-08-25T06:43:03;28.00;61.80
48604;DHT22;32708;51.212;6.788;2022-08-25T06:45:33;28.80;55.50
48604;DHT22;32708;51.212;6.788;2022-08-25T06:47:59;29.00;49.20
48604;DHT22;32708;51.212;6.788;2022-08-25T06:50:28;28.80;44.50
48604;DHT22;32708;51.212;6.788;2022-08-25T06:52:54;28.80;43.20
48604;DHT22;32708;51.212;6.788;2022-08-25T06:55:20;28.90;41.00
48604;DHT22;32708;51.212;6.788;2022-08-25T06:57:46;29.30;37.00
48604;DHT22;32708;51.212;6.788;2022-08-25T07:00:13;29.40;34.60
48604;DHT22;32708;51.212;6.788;2022-08-25T07:02:40;29.50;31.20
48604;DHT22;32708;51.212;6.788;2022-08-25T07:05:07;29.70;28.20
48604;DHT22;32708;51.212;6.788;2022-08-25T07:07:34;29.40;27.00
48604;DHT22;32708;51.212;6.788;2022-08-25T07:10:00;29.50;27.90
48604;DHT22;32708;51.212;6.788;2022-08-25T07:12:27;29.50;26.20
48604;DHT22;32708;51.212;6.788;2022-08-25T07:14:53;29.30;25.30
48604;DHT22;32708;51.212;6.788;2022-08-25T07:17:21;28.90;26.30
48604;DHT22;32708;51.212;6.788;2022-08-25T07:19:48;29.30;25.10
48604;DHT22;32708;51.212;6.788;2022-08-25T07:22:14;29.30;23.30
48604;DHT22;32708;51.212;6.788;2022-08-25T07:24:40;29.70;22.60
48604;DHT22;32708;51.212;6.788;2022-08-25T07:27:06;29.90;30.00
48604;DHT22;32708;51.212;6.788;2022-08-25T07:29:36;29.80;20.90
48604;DHT22;32708;51.212;6.788;2022-08-25T07:32:04;30.40;20.30
48604;DHT22;32708;51.212;6.788;2022-08-25T07:34:31;30.40;17.50
48604;DHT22;32708;51.212;6.788;2022-08-25T07:37:20;30.30;15.30
48604;DHT22;32708;51.212;6.788;2022-08-25T07:39:48;29.80;14.80
48604;DHT22;32708;51.212;6.788;2022-08-25T07:42:14;30.30;13.90
48604;DHT22;32708;51.212;6.788;2022-08-25T07:44:43;30.40;12.50
48604;DHT22;32708;51.212;6.788;2022-08-25T07:47:09;30.80;12.40
48604;DHT22;32708;51.212;6.788;2022-08-25T07:49:35;30.20;10.70
48604;DHT22;32708;51.212;6.788;2022-08-25T07:52:02;30.60;10.30
48604;DHT22;32708;51.212;6.788;2022-08-25T07:54:28;31.10;9.00
48604;DHT22;32708;51.212;6.788;2022-08-25T07:56:54;31.20;7.30
48604;DHT22;32708;51.212;6.788;2022-08-25T07:59:20;30.90;8.00
48604;DHT22;32708;51.212;6.788;2022-08-25T08:01:46;30.90;6.20
48604;DHT22;32708;51.212;6.788;2022-08-25T08:04:12;31.20;6.50
48604;DHT22;32708;51.212;6.788;2022-08-25T08:06:38;31.70;5.10
48604;DHT22;32708;51.212;6.788;2022-08-25T08:09:05;31.20;3.60
48604;DHT22;32708;51.212;6.788;2022-08-25T08:11:34;31.50;2.30
48604;DHT22;32708;51.212;6.788;2022-08-25T08:14:03;31.40;2.40
48604;DHT22;32708;51.212;6.788;2022-08-25T08:16:30;31.20;2.50
48604;DHT22;32708;51.212;6.788;2022-08-25T08:18:57;31.60;1.30
48604;DHT22;32708;51.212;6.788;2022-08-25T08:21:29;32.40;1.00
48604;DHT22;32708;51.212;6.788;2022-08-25T08:23:57;31.90;1.00
48604;DHT22;32708;51.212;6.788;2022-08-25T08:26:25;31.70;1.00
48604;DHT22;32708;51.212;6.788;2022-08-25T08:28:53;31.20;1.00
48604;DHT22;32708;51.212;6.788;2022-08-25T08:31:24;31.20;1.00
48604;DHT22;32708;51.212;6.788;2022-08-25T08:33:53;31.00;1.00
48604;DHT22;32708;51.212;6.788;2022-08-25T08:36:21;31.20;1.00
48604;DHT22;32708;51.212;6.788;2022-08-25T08:38:48;31.30;1.00
48604;DHT22;32708;51.212;6.788;2022-08-25T08:53:22;31.70;1.00
48604;DHT22;32708;51.212;6.788;2022-08-25T08:55:56;31.70;1.00
48604;DHT22;32708;51.212;6.788;2022-08-25T08:58:50;31.60;1.00
48604;DHT22;32708;51.212;6.788;2022-08-25T09:04:26;31.90;1.00
48604;DHT22;32708;51.212;6.788;2022-08-25T09:06:54;31.90;1.00
48604;DHT22;32708;51.212;6.788;2022-08-25T09:09:31;31.20;1.00
48604;DHT22;32708;51.212;6.788;2022-08-25T09:12:15;32.10;1.00
48604;DHT22;32708;51.212;6.788;2022-08-25T09:15:02;32.40;1.00
48604;DHT22;32708;51.212;6.788;2022-08-25T09:17:56;32.20;1.00
48604;DHT22;32708;51.212;6.788;2022-08-25T09:20:39;32.60;1.00
48604;DHT22;32708;51.212;6.788;2022-08-25T09:23:36;32.60;1.00
48604;DHT22;32708;51.212;6.788;2022-08-25T09:28:51;31.70;1.00
48604;DHT22;32708;51.212;6.788;2022-08-25T09:31:34;31.90;1.00
48604;DHT22;32708;51.212;6.788;2022-08-25T09:34:05;32.30;1.00
48604;DHT22;32708;51.212;6.788;2022-08-25T09:36:35;32.30;1.00
48604;DHT22;32708;51.212;6.788;2022-08-25T09:39:04;32.20;1.00
48604;DHT22;32708;51.212;6.788;2022-08-25T09:47:56;32.60;1.00
48604;DHT22;32708;51.212;6.788;2022-08-25T09:50:30;32.20;1.00
48604;DHT22;32708;51.212;6.788;2022-08-25T09:53:12;32.10;1.00
48604;DHT22;32708;51.212;6.788;2022-08-25T09:55:43;32.00;1.00
48604;DHT22;32708;51.212;6.788;2022-08-25T09:58:21;32.30;1.00
48604;DHT22;32708;51.212;6.788;2022-08-25T10:01:11;32.70;1.00
48604;DHT22;32708;51.212;6.788;2022-08-25T10:04:05;33.10;1.00
48604;DHT22;32708;51.212;6.788;2022-08-25T10:06:50;32.70;1.00
48604;DHT22;32708;51.212;6.788;2022-08-25T10:09:39;32.90;1.00
48604;DHT22;32708;51.212;6.788;2022-08-25T10:14:55;33.50;1.00
48604;DHT22;32708;51.212;6.788;2022-08-25T10:17:30;33.00;1.00
48604;DHT22;32708;51.212;6.788;2022-08-25T10:22:36;32.90;1.00
48604;DHT22;32708;51.212;6.788;2022-08-25T10:25:06;32.90;1.00
48604;DHT22;32708;51.212;6.788;2022-08-25T10:33:29;33.10;1.00
48604;DHT22;32708;51.212;6.788;2022-08-25T10:36:07;33.00;1.00
48604;DHT22;32708;51.212;6.788;2022-08-25T10:38:53;33.50;1.00
48604;DHT22;32708;51.212;6.788;2022-08-25T10:41:57;33.80;1.00
48604;DHT22;32708;51.212;6.788;2022-08-25T11:01:41;34.10;1.00
48604;DHT22;32708;51.212;6.788;2022-08-25T11:07:04;33.80;1.00
48604;DHT22;32708;51.212;6.788;2022-08-25T11:09:42;33.70;1.00
48604;DHT22;32708;51.212;6.788;2022-08-25T11:14:51;34.40;1.00
48604;DHT22;32708;51.212;6.788;2022-08-25T11:17:51;34.60;1.00
48604;DHT22;32708;51.212;6.788;2022-08-25T11:20:37;34.40;1.00
48604;DHT22;32708;51.212;6.788;2022-08-25T11:23:22;34.60;1.00
48604;DHT22;32708;51.212;6.788;2022-08-25T11:25:59;34.50;1.00
48604;DHT22;32708;51.212;6.788;2022-08-25T11:30:59;34.30;1.00
48604;DHT22;32708;51.212;6.788;2022-08-25T11:33:28;34.90;1.00
48604;DHT22;32708;51.212;6.788;2022-08-25T11:39:14;34.10;1.00
48604;DHT22;32708;51.212;6.788;2022-08-25T11:50:33;34.90;1.00
48604;DHT22;32708;51.212;6.788;2022-08-25T11:53:29;34.60;1.00
48604;DHT22;32708;51.212;6.788;2022-08-25T11:56:01;34.90;1.00
48604;DHT22;32708;51.212;6.788;2022-08-25T11:58:47;34.90;1.00
48604;DHT22;32708;51.212;6.788;2022-08-25T12:23:31;35.20;1.00
48604;DHT22;32708;51.212;6.788;2022-08-25T12:26:14;35.80;1.00
48604;DHT22;32708;51.212;6.788;2022-08-25T12:29:03;35.70;1.00
48604;DHT22;32708;51.212;6.788;2022-08-25T12:37:02;35.00;1.00
48604;DHT22;32708;51.212;6.788;2022-08-25T12:39:34;35.00;1.00
48604;DHT22;32708;51.212;6.788;2022-08-25T12:42:06;35.30;1.00
48604;DHT22;32708;51.212;6.788;2022-08-25T12:44:46;35.00;1.00
48604;DHT22;32708;51.212;6.788;2022-08-25T12:47:33;35.10;1.00
48604;DHT22;32708;51.212;6.788;2022-08-25T12:50:35;35.00;1.00
48604;DHT22;32708;51.212;6.788;2022-08-25T12:55:47;35.60;1.00
48604;DHT22;32708;51.212;6.788;2022-08-25T12:58:15;35.40;1.00
48604;DHT22;32708;51.212;6.788;2022-08-25T13:15:44;34.10;1.00
48604;DHT22;32708;51.212;6.788;2022-08-25T13:20:51;33.70;1.00
48604;DHT22;32708;51.212;6.788;2022-08-25T13:23:24;33.80;1.00
48604;DHT22;32708;51.212;6.788;2022-08-25T13:25:53;33.80;1.00
48604;DHT22;32708;51.212;6.788;2022-08-25T13:28:42;33.40;1.00
48604;DHT22;32708;51.212;6.788;2022-08-25T13:31:17;33.40;1.00
48604;DHT22;32708;51.212;6.788;2022-08-25T13:33:59;33.40;1.00
48604;DHT22;32708;51.212;6.788;2022-08-25T13:36:30;33.40;1.00
48604;DHT22;32708;51.212;6.788;2022-08-25T13:39:18;33.30;1.00
48604;DHT22;32708;51.212;6.788;2022-08-25T13:41:48;33.30;1.00
48604;DHT22;32708;51.212;6.788;2022-08-25T13:44:18;33.20;1.00
48604;DHT22;32708;51.212;6.788;2022-08-25T13:46:45;33.20;1.00
48604;DHT22;32708;51.212;6.788;2022-08-25T13:49:24;33.30;1.00
48604;DHT22;32708;51.212;6.788;2022-08-25T13:51:53;33.30;1.00
48604;DHT22;32708;51.212;6.788;2022-08-25T13:54:30;33.30;1.00
48604;DHT22;32708;51.212;6.788;2022-08-25T13:57:21;33.00;1.00
48604;DHT22;32708;51.212;6.788;2022-08-25T13:59:51;33.10;1.00
48604;DHT22;32708;51.212;6.788;2022-08-25T14:02:50;33.00;1.00
48604;DHT22;32708;51.212;6.788;2022-08-25T14:05:35;33.20;1.00
48604;DHT22;32708;51.212;6.788;2022-08-25T14:08:03;33.20;1.00
48604;DHT22;32708;51.212;6.788;2022-08-25T14:10:35;32.90;1.00
48604;DHT22;32708;51.212;6.788;2022-08-25T14:15:39;33.30;1.00
48604;DHT22;32708;51.212;6.788;2022-08-25T14:18:30;33.50;1.00
48604;DHT22;32708;51.212;6.788;2022-08-25T14:21:09;33.30;1.00
48604;DHT22;32708;51.212;6.788;2022-08-25T14:23:40;33.20;1.00
48604;DHT22;32708;51.212;6.788;2022-08-25T14:26:09;33.20;1.00
48604;DHT22;32708;51.212;6.788;2022-08-25T14:28:37;33.00;1.00
48604;DHT22;32708;51.212;6.788;2022-08-25T14:31:08;33.10;1.00
48604;DHT22;32708;51.212;6.788;2022-08-25T14:33:54;33.30;1.00
48604;DHT22;32708;51.212;6.788;2022-08-25T14:36:21;33.20;1.00
48604;DHT22;32708;51.212;6.788;2022-08-25T14:38:47;33.20;1.00
48604;DHT22;32708;51.212;6.788;2022-08-25T14:41:14;33.20;1.00
48604;DHT22;32708;51.212;6.788;2022-08-25T14:43:41;33.20;1.00
48604;DHT22;32708;51.212;6.788;2022-08-25T14:46:24;33.30;1.00
48604;DHT22;32708;51.212;6.788;2022-08-25T14:49:05;33.20;1.00
48604;DHT22;32708;51.212;6.788;2022-08-25T14:51:33;33.50;1.00
48604;DHT22;32708;51.212;6.788;2022-08-25T14:54:09;33.50;1.00
48604;DHT22;32708;51.212;6.788;2022-08-25T14:56:39;33.30;1.00
48604;DHT22;32708;51.212;6.788;2022-08-25T14:59:06;33.10;1.00
48604;DHT22;32708;51.212;6.788;2022-08-25T15:01:52;33.10;1.00
48604;DHT22;32708;51.212;6.788;2022-08-25T15:04:28;33.20;1.00
48604;DHT22;32708;51.212;6.788;2022-08-25T15:06:57;33.30;1.00
48604;DHT22;32708;51.212;6.788;2022-08-25T15:09:24;33.40;1.00
48604;DHT22;32708;51.212;6.788;2022-08-25T15:11:53;33.40;1.00
48604;DHT22;32708;51.212;6.788;2022-08-25T15:14:22;33.30;1.00
48604;DHT22;32708;51.212;6.788;2022-08-25T15:16:52;33.20;1.00
48604;DHT22;32708;51.212;6.788;2022-08-25T15:19:25;33.10;1.00
48604;DHT22;32708;51.212;6.788;2022-08-25T15:21:52;32.90;1.00
48604;DHT22;32708;51.212;6.788;2022-08-25T15:24:20;32.90;1.00
48604;DHT22;32708;51.212;6.788;2022-08-25T15:27:01;32.80;1.00
48604;DHT22;32708;51.212;6.788;2022-08-25T15:29:31;32.70;1.00
48604;DHT22;32708;51.212;6.788;2022-08-25T15:32:03;32.70;1.00
48604;DHT22;32708;51.212;6.788;2022-08-25T15:34:30;32.90;1.00
48604;DHT22;32708;51.212;6.788;2022-08-25T15:37:00;33.00;1.00
48604;DHT22;32708;51.212;6.788;2022-08-25T15:39:30;33.00;1.00
48604;DHT22;32708;51.212;6.788;2022-08-25T15:41:57;32.90;1.00
48604;DHT22;32708;51.212;6.788;2022-08-25T15:44:23;32.90;1.00
48604;DHT22;32708;51.212;6.788;2022-08-25T15:46:49;32.80;1.00
48604;DHT22;32708;51.212;6.788;2022-08-25T15:49:17;32.90;1.00
48604;DHT22;32708;51.212;6.788;2022-08-25T15:51:44;32.80;1.00
48604;DHT22;32708;51.212;6.788;2022-08-25T15:54:11;32.80;1.00
48604;DHT22;32708;51.212;6.788;2022-08-25T15:56:39;32.80;1.00
48604;DHT22;32708;51.212;6.788;2022-08-25T15:59:05;32.70;1.00
48604;DHT22;32708;51.212;6.788;2022-08-25T16:01:32;32.70;1.00
48604;DHT22;32708;51.212;6.788;2022-08-25T16:03:58;32.70;1.00
48604;DHT22;32708;51.212;6.788;2022-08-25T16:06:25;32.70;1.00
48604;DHT22;32708;51.212;6.788;2022-08-25T16:08:51;32.80;1.00
48604;DHT22;32708;51.212;6.788;2022-08-25T16:11:20;32.70;1.00
48604;DHT22;32708;51.212;6.788;2022-08-25T16:13:47;32.70;1.00
48604;DHT22;32708;51.212;6.788;2022-08-25T16:16:14;32.70;1.00
48604;DHT22;32708;51.212;6.788;2022-08-25T16:18:43;32.60;1.00
48604;DHT22;32708;51.212;6.788;2022-08-25T16:21:12;32.40;1.00
48604;DHT22;32708;51.212;6.788;2022-08-25T16:23:39;32.30;1.00
48604;DHT22;32708;51.212;6.788;2022-08-25T16:26:07;32.50;1.00
48604;DHT22;32708;51.212;6.788;2022-08-25T16:28:35;32.50;1.00
48604;DHT22;32708;51.212;6.788;2022-08-25T16:31:01;32.40;1.00
48604;DHT22;32708;51.212;6.788;2022-08-25T16:33:27;32.50;1.00
48604;DHT22;32708;51.212;6.788;2022-08-25T16:36:03;32.50;1.00
48604;DHT22;32708;51.212;6.788;2022-08-25T16:38:29;32.20;1.00
48604;DHT22;32708;51.212;6.788;2022-08-25T16:40:57;32.20;1.00
48604;DHT22;32708;51.212;6.788;2022-08-25T16:43:23;32.10;1.00
48604;DHT22;32708;51.212;6.788;2022-08-25T16:45:57;32.00;1.00
48604;DHT22;32708;51.212;6.788;2022-08-25T16:48:23;32.00;1.00
48604;DHT22;32708;51.212;6.788;2022-08-25T16:50:49;31.90;1.00
48604;DHT22;32708;51.212;6.788;2022-08-25T16:53:15;32.00;1.00
48604;DHT22;32708;51.212;6.788;2022-08-25T16:56:01;31.90;1.00
48604;DHT22;32708;51.212;6.788;2022-08-25T16:58:27;32.00;1.00
48604;DHT22;32708;51.212;6.788;2022-08-25T17:00:54;31.90;1.00
48604;DHT22;32708;51.212;6.788;2022-08-25T17:03:19;32.00;1.00
48604;DHT22;32708;51.212;6.788;2022-08-25T17:05:45;31.90;1.00
48604;DHT22;32708;51.212;6.788;2022-08-25T17:08:11;31.90;1.00
48604;DHT22;32708;51.212;6.788;2022-08-25T17:11:02;31.80;1.00
48604;DHT22;32708;51.212;6.788;2022-08-25T17:13:32;32.00;1.00
48604;DHT22;32708;51.212;6.788;2022-08-25T17:15:59;31.80;1.00
48604;DHT22;32708;51.212;6.788;2022-08-25T17:18:27;31.90;1.00
48604;DHT22;32708;51.212;6.788;2022-08-25T17:21:05;31.90;1.00
48604;DHT22;32708;51.212;6.788;2022-08-25T17:23:33;31.90;1.00
48604;DHT22;32708;51.212;6.788;2022-08-25T17:26:02;31.80;1.00
48604;DHT22;32708;51.212;6.788;2022-08-25T17:28:29;31.80;1.00
48604;DHT22;32708;51.212;6.788;2022-08-25T17:30:57;31.90;1.00
48604;DHT22;32708;51.212;6.788;2022-08-25T17:33:23;31.80;1.00
48604;DHT22;32708;51.212;6.788;2022-08-25T17:35:52;31.80;1.00
48604;DHT22;32708;51.212;6.788;2022-08-25T17:38:20;31.70;1.00
48604;DHT22;32708;51.212;6.788;2022-08-25T17:40:59;31.60;1.00
48604;DHT22;32708;51.212;6.788;2022-08-25T17:43:27;31.50;1.00
48604;DHT22;32708;51.212;6.788;2022-08-25T17:45:55;31.60;1.00
48604;DHT22;32708;51.212;6.788;2022-08-25T17:48:23;31.60;1.00
48604;DHT22;32708;51.212;6.788;2022-08-25T17:50:50;31.60;1.00
48604;DHT22;32708;51.212;6.788;2022-08-25T17:53:19;31.50;1.00
48604;DHT22;32708;51.212;6.788;2022-08-25T17:55:47;31.40;1.00
48604;DHT22;32708;51.212;6.788;2022-08-25T17:58:15;31.40;1.00
48604;DHT22;32708;51.212;6.788;2022-08-25T18:00:42;31.30;1.00
48604;DHT22;32708;51.212;6.788;2022-08-25T18:03:12;31.20;1.00
48604;DHT22;32708;51.212;6.788;2022-08-25T18:05:38;31.10;1.00
48604;DHT22;32708;51.212;6.788;2022-08-25T18:08:07;31.00;1.00
48604;DHT22;32708;51.212;6.788;2022-08-25T18:10:33;31.00;1.00